sensor_id;sensor_type;location;lat;lon;timestamp;P1;durP1;ratioP1;P2;durP2;ratioP2
7150;SDS011;3617;48.836;9.172;2024-02-21T00:01:02;1.73;;;1.60;;
7150;SDS011;3617;48.836;9.172;2024-02-21T00:03:29;1.73;;;1.63;;
7150;SDS011;3617;48.836;9.172;2024-02-21T00:05:54;2.50;;;2.10;;
7150;SDS011;3617;48.836;9.172;2024-02-21T00:08:20;2.20;;;1.93;;
7150;SDS011;3617;48.836;9.172;2024-02-21T00:10:46;2.20;;;1.30;;
7150;SDS011;3617;48.836;9.172;2024-02-21T00:13:12;4.87;;;2.43;;
7150;SDS011;3617;48.836;9.172;2024-02-21T00:15:38;1.83;;;1.70;;
7150;SDS011;3617;48.836;9.172;2024-02-21T00:18:04;6.20;;;2.40;;
7150;SDS011;3617;48.836;9.172;2024-02-21T00:20:30;2.37;;;1.87;;
7150;SDS011;3617;48.836;9.172;2024-02-21T00:22:56;2.97;;;2.17;;
7150;SDS011;3617;48.836;9.172;2024-02-21T00:25:22;3.03;;;1.90;;
7150;SDS011;3617;48.836;9.172;2024-02-21T00:27:48;2.77;;;2.00;;
7150;SDS011;3617;48.836;9.172;2024-02-21T00:30:14;3.07;;;2.13;;
7150;SDS011;3617;48.836;9.172;2024-02-21T00:32:40;3.90;;;2.20;;
7150;SDS011;3617;48.836;9.172;2024-02-21T00:35:06;5.53;;;2.30;;
7150;SDS011;3617;48.836;9.172;2024-02-21T00:37:32;2.70;;;2.00;;
7150;SDS011;3617;48.836;9.172;2024-02-21T00:39:58;3.43;;;1.93;;
7150;SDS011;3617;48.836;9.172;2024-02-21T00:42:24;2.30;;;1.90;;
7150;SDS011;3617;48.836;9.172;2024-02-21T00:44:50;1.73;;;1.63;;
7150;SDS011;3617;48.836;9.172;2024-02-21T00:47:16;3.63;;;2.23;;
7150;SDS011;3617;48.836;9.172;2024-02-21T00:49:42;1.90;;;1.80;;
7150;SDS011;3617;48.836;9.172;2024-02-21T00:52:08;2.60;;;1.80;;
7150;SDS011;3617;48.836;9.172;2024-02-21T00:54:34;1.90;;;1.80;;
7150;SDS011;3617;48.836;9.172;2024-02-21T00:57:00;5.93;;;1.80;;
7150;SDS011;3617;48.836;9.172;2024-02-21T00:59:26;4.37;;;2.50;;
7150;SDS011;3617;48.836;9.172;2024-02-21T01:01:52;3.73;;;1.60;;
7150;SDS011;3617;48.836;9.172;2024-02-21T01:04:18;3.73;;;2.20;;
7150;SDS011;3617;48.836;9.172;2024-02-21T01:06:44;3.93;;;2.00;;
7150;SDS011;3617;48.836;9.172;2024-02-21T01:09:13;7.40;;;2.60;;
7150;SDS011;3617;48.836;9.172;2024-02-21T01:11:39;5.90;;;1.87;;
7150;SDS011;3617;48.836;9.172;2024-02-21T01:14:05;2.77;;;2.10;;
7150;SDS011;3617;48.836;9.172;2024-02-21T01:16:32;1.70;;;1.60;;
7150;SDS011;3617;48.836;9.172;2024-02-21T01:18:58;5.77;;;2.03;;
7150;SDS011;3617;48.836;9.172;2024-02-21T01:21:24;2.13;;;1.80;;
7150;SDS011;3617;48.836;9.172;2024-02-21T01:23:50;2.30;;;2.10;;
7150;SDS011;3617;48.836;9.172;2024-02-21T01:26:16;2.10;;;1.50;;
7150;SDS011;3617;48.836;9.172;2024-02-21T01:28:43;6.07;;;1.60;;
7150;SDS011;3617;48.836;9.172;2024-02-21T01:31:10;4.83;;;1.70;;
7150;SDS011;3617;48.836;9.172;2024-02-21T01:33:36;2.67;;;2.17;;
7150;SDS011;3617;48.836;9.172;2024-02-21T01:36:04;2.60;;;1.83;;
7150;SDS011;3617;48.836;9.172;2024-02-21T01:38:33;2.23;;;1.70;;
7150;SDS011;3617;48.836;9.172;2024-02-21T01:40:59;3.53;;;1.80;;
7150;SDS011;3617;48.836;9.172;2024-02-21T01:43:25;4.63;;;1.80;;
7150;SDS011;3617;48.836;9.172;2024-02-21T01:45:54;2.47;;;1.67;;
7150;SDS011;3617;48.836;9.172;2024-02-21T01:48:21;2.07;;;1.40;;
7150;SDS011;3617;48.836;9.172;2024-02-21T01:50:48;4.20;;;1.47;;
7150;SDS011;3617;48.836;9.172;2024-02-21T01:53:16;2.10;;;1.57;;
7150;SDS011;3617;48.836;9.172;2024-02-21T01:55:47;4.33;;;1.73;;
7150;SDS011;3617;48.836;9.172;2024-02-21T01:58:16;3.03;;;1.60;;
7150;SDS011;3617;48.836;9.172;2024-02-21T02:00:42;8.67;;;2.20;;
7150;SDS011;3617;48.836;9.172;2024-02-21T02:03:12;3.77;;;2.37;;
7150;SDS011;3617;48.836;9.172;2024-02-21T02:05:42;4.40;;;1.83;;
7150;SDS011;3617;48.836;9.172;2024-02-21T02:08:08;2.73;;;1.57;;
7150;SDS011;3617;48.836;9.172;2024-02-21T02:10:34;3.03;;;1.53;;
7150;SDS011;3617;48.836;9.172;2024-02-21T02:13:00;2.73;;;1.80;;
7150;SDS011;3617;48.836;9.172;2024-02-21T02:15:26;4.57;;;1.60;;
7150;SDS011;3617;48.836;9.172;2024-02-21T02:18:03;3.57;;;1.77;;
7150;SDS011;3617;48.836;9.172;2024-02-21T02:20:29;2.07;;;1.70;;
7150;SDS011;3617;48.836;9.172;2024-02-21T02:22:55;4.50;;;2.13;;
7150;SDS011;3617;48.836;9.172;2024-02-21T02:25:21;3.97;;;2.00;;
7150;SDS011;3617;48.836;9.172;2024-02-21T02:27:47;1.83;;;1.40;;
7150;SDS011;3617;48.836;9.172;2024-02-21T02:30:13;3.17;;;1.60;;
7150;SDS011;3617;48.836;9.172;2024-02-21T02:32:39;3.13;;;1.80;;
7150;SDS011;3617;48.836;9.172;2024-02-21T02:35:05;3.47;;;1.90;;
7150;SDS011;3617;48.836;9.172;2024-02-21T02:37:31;2.00;;;1.53;;
7150;SDS011;3617;48.836;9.172;2024-02-21T02:39:57;3.93;;;1.70;;
7150;SDS011;3617;48.836;9.172;2024-02-21T02:42:22;4.60;;;1.57;;
7150;SDS011;3617;48.836;9.172;2024-02-21T02:44:49;2.80;;;1.40;;
7150;SDS011;3617;48.836;9.172;2024-02-21T02:47:15;2.53;;;1.70;;
7150;SDS011;3617;48.836;9.172;2024-02-21T02:49:42;3.40;;;1.60;;
7150;SDS011;3617;48.836;9.172;2024-02-21T02:52:08;1.20;;;1.10;;
7150;SDS011;3617;48.836;9.172;2024-02-21T02:54:34;3.20;;;1.30;;
7150;SDS011;3617;48.836;9.172;2024-02-21T02:57:00;2.70;;;1.60;;
7150;SDS011;3617;48.836;9.172;2024-02-21T02:59:28;1.53;;;1.30;;
7150;SDS011;3617;48.836;9.172;2024-02-21T03:01:54;1.90;;;1.40;;
7150;SDS011;3617;48.836;9.172;2024-02-21T03:04:20;1.80;;;1.40;;
7150;SDS011;3617;48.836;9.172;2024-02-21T03:06:46;2.43;;;1.47;;
7150;SDS011;3617;48.836;9.172;2024-02-21T03:09:12;3.23;;;1.43;;
7150;SDS011;3617;48.836;9.172;2024-02-21T03:11:40;2.40;;;1.50;;
7150;SDS011;3617;48.836;9.172;2024-02-21T03:14:08;4.10;;;1.63;;
7150;SDS011;3617;48.836;9.172;2024-02-21T03:16:34;3.70;;;2.10;;
7150;SDS011;3617;48.836;9.172;2024-02-21T03:19:00;2.60;;;1.60;;
7150;SDS011;3617;48.836;9.172;2024-02-21T03:21:26;3.43;;;1.47;;
7150;SDS011;3617;48.836;9.172;2024-02-21T03:23:53;2.07;;;1.63;;
7150;SDS011;3617;48.836;9.172;2024-02-21T03:26:19;3.77;;;1.27;;
7150;SDS011;3617;48.836;9.172;2024-02-21T03:28:45;3.27;;;1.77;;
7150;SDS011;3617;48.836;9.172;2024-02-21T03:31:11;1.50;;;1.40;;
7150;SDS011;3617;48.836;9.172;2024-02-21T03:33:39;4.27;;;1.53;;
7150;SDS011;3617;48.836;9.172;2024-02-21T03:36:05;1.30;;;1.20;;
7150;SDS011;3617;48.836;9.172;2024-02-21T03:38:31;1.83;;;1.37;;
7150;SDS011;3617;48.836;9.172;2024-02-21T03:40:57;1.63;;;1.37;;
7150;SDS011;3617;48.836;9.172;2024-02-21T03:43:23;4.53;;;1.77;;
7150;SDS011;3617;48.836;9.172;2024-02-21T03:45:49;4.07;;;1.67;;
7150;SDS011;3617;48.836;9.172;2024-02-21T03:48:15;2.33;;;1.70;;
7150;SDS011;3617;48.836;9.172;2024-02-21T03:50:41;4.17;;;1.70;;
7150;SDS011;3617;48.836;9.172;2024-02-21T03:53:07;2.97;;;1.87;;
7150;SDS011;3617;48.836;9.172;2024-02-21T03:55:34;4.70;;;1.87;;
7150;SDS011;3617;48.836;9.172;2024-02-21T03:58:00;2.50;;;1.60;;
7150;SDS011;3617;48.836;9.172;2024-02-21T04:00:26;1.50;;;1.40;;
7150;SDS011;3617;48.836;9.172;2024-02-21T04:02:52;1.70;;;1.60;;
7150;SDS011;3617;48.836;9.172;2024-02-21T04:05:18;3.13;;;1.40;;
7150;SDS011;3617;48.836;9.172;2024-02-21T04:07:44;1.43;;;1.20;;
7150;SDS011;3617;48.836;9.172;2024-02-21T04:10:10;2.40;;;1.50;;
7150;SDS011;3617;48.836;9.172;2024-02-21T04:12:36;2.97;;;1.70;;
7150;SDS011;3617;48.836;9.172;2024-02-21T04:15:03;4.37;;;2.00;;
7150;SDS011;3617;48.836;9.172;2024-02-21T04:17:29;1.60;;;1.50;;
7150;SDS011;3617;48.836;9.172;2024-02-21T04:20:01;8.93;;;1.63;;
7150;SDS011;3617;48.836;9.172;2024-02-21T04:22:30;2.37;;;1.77;;
7150;SDS011;3617;48.836;9.172;2024-02-21T04:24:56;3.10;;;1.63;;
7150;SDS011;3617;48.836;9.172;2024-02-21T04:27:22;2.00;;;1.23;;
7150;SDS011;3617;48.836;9.172;2024-02-21T04:29:48;1.60;;;1.50;;
7150;SDS011;3617;48.836;9.172;2024-02-21T04:32:14;1.70;;;1.30;;
7150;SDS011;3617;48.836;9.172;2024-02-21T04:34:40;5.20;;;1.73;;
7150;SDS011;3617;48.836;9.172;2024-02-21T04:37:08;5.03;;;1.37;;
7150;SDS011;3617;48.836;9.172;2024-02-21T04:39:34;2.20;;;1.60;;
7150;SDS011;3617;48.836;9.172;2024-02-21T04:42:00;2.83;;;1.70;;
7150;SDS011;3617;48.836;9.172;2024-02-21T04:44:26;2.67;;;1.70;;
7150;SDS011;3617;48.836;9.172;2024-02-21T04:46:52;3.70;;;1.80;;
7150;SDS011;3617;48.836;9.172;2024-02-21T04:49:18;2.03;;;1.53;;
7150;SDS011;3617;48.836;9.172;2024-02-21T04:51:45;6.40;;;2.13;;
7150;SDS011;3617;48.836;9.172;2024-02-21T04:54:11;1.63;;;1.47;;
7150;SDS011;3617;48.836;9.172;2024-02-21T04:56:36;3.60;;;1.70;;
7150;SDS011;3617;48.836;9.172;2024-02-21T04:59:02;3.43;;;1.73;;
7150;SDS011;3617;48.836;9.172;2024-02-21T05:01:29;3.23;;;1.80;;
7150;SDS011;3617;48.836;9.172;2024-02-21T05:03:54;5.60;;;1.70;;
7150;SDS011;3617;48.836;9.172;2024-02-21T05:06:20;1.57;;;1.20;;
7150;SDS011;3617;48.836;9.172;2024-02-21T05:08:47;3.07;;;2.07;;
7150;SDS011;3617;48.836;9.172;2024-02-21T05:11:13;13.00;;;4.03;;
7150;SDS011;3617;48.836;9.172;2024-02-21T05:13:39;7.20;;;2.97;;
7150;SDS011;3617;48.836;9.172;2024-02-21T05:16:05;6.63;;;2.87;;
7150;SDS011;3617;48.836;9.172;2024-02-21T05:18:31;2.77;;;1.93;;
7150;SDS011;3617;48.836;9.172;2024-02-21T05:20:57;4.57;;;2.20;;
7150;SDS011;3617;48.836;9.172;2024-02-21T05:23:23;4.70;;;2.33;;
7150;SDS011;3617;48.836;9.172;2024-02-21T05:25:49;3.27;;;2.47;;
7150;SDS011;3617;48.836;9.172;2024-02-21T05:28:15;7.70;;;3.40;;
7150;SDS011;3617;48.836;9.172;2024-02-21T05:30:41;10.17;;;4.90;;
7150;SDS011;3617;48.836;9.172;2024-02-21T05:33:08;9.10;;;4.30;;
7150;SDS011;3617;48.836;9.172;2024-02-21T05:35:34;5.73;;;3.67;;
7150;SDS011;3617;48.836;9.172;2024-02-21T05:38:01;5.70;;;2.97;;
7150;SDS011;3617;48.836;9.172;2024-02-21T05:40:30;6.00;;;2.50;;
7150;SDS011;3617;48.836;9.172;2024-02-21T05:42:56;5.83;;;2.23;;
7150;SDS011;3617;48.836;9.172;2024-02-21T05:45:22;2.87;;;1.83;;
7150;SDS011;3617;48.836;9.172;2024-02-21T05:47:48;2.97;;;1.93;;
7150;SDS011;3617;48.836;9.172;2024-02-21T05:50:15;2.93;;;1.90;;
7150;SDS011;3617;48.836;9.172;2024-02-21T05:52:42;3.13;;;1.43;;
7150;SDS011;3617;48.836;9.172;2024-02-21T05:55:08;3.00;;;1.73;;
7150;SDS011;3617;48.836;9.172;2024-02-21T05:57:34;2.07;;;1.77;;
7150;SDS011;3617;48.836;9.172;2024-02-21T06:00:00;4.40;;;2.00;;
7150;SDS011;3617;48.836;9.172;2024-02-21T06:02:26;3.70;;;2.07;;
7150;SDS011;3617;48.836;9.172;2024-02-21T06:04:53;5.40;;;2.33;;
7150;SDS011;3617;48.836;9.172;2024-02-21T06:07:19;1.63;;;1.50;;
7150;SDS011;3617;48.836;9.172;2024-02-21T06:09:44;1.80;;;1.43;;
7150;SDS011;3617;48.836;9.172;2024-02-21T06:12:10;4.00;;;1.93;;
7150;SDS011;3617;48.836;9.172;2024-02-21T06:14:36;3.30;;;1.70;;
7150;SDS011;3617;48.836;9.172;2024-02-21T06:17:02;2.70;;;2.03;;
7150;SDS011;3617;48.836;9.172;2024-02-21T06:19:28;5.57;;;1.60;;
7150;SDS011;3617;48.836;9.172;2024-02-21T06:21:54;1.43;;;1.33;;
7150;SDS011;3617;48.836;9.172;2024-02-21T06:24:20;2.90;;;1.60;;
7150;SDS011;3617;48.836;9.172;2024-02-21T06:26:46;2.10;;;1.60;;
7150;SDS011;3617;48.836;9.172;2024-02-21T06:29:12;1.53;;;1.43;;
7150;SDS011;3617;48.836;9.172;2024-02-21T06:31:39;4.07;;;1.37;;
7150;SDS011;3617;48.836;9.172;2024-02-21T06:34:05;1.63;;;1.50;;
7150;SDS011;3617;48.836;9.172;2024-02-21T06:36:31;2.20;;;1.60;;
7150;SDS011;3617;48.836;9.172;2024-02-21T06:38:58;1.30;;;1.20;;
7150;SDS011;3617;48.836;9.172;2024-02-21T06:41:24;3.13;;;1.60;;
7150;SDS011;3617;48.836;9.172;2024-02-21T06:43:50;4.73;;;2.07;;
7150;SDS011;3617;48.836;9.172;2024-02-21T06:46:23;2.60;;;1.23;;
7150;SDS011;3617;48.836;9.172;2024-02-21T06:48:49;3.47;;;1.80;;
7150;SDS011;3617;48.836;9.172;2024-02-21T06:51:15;2.13;;;1.40;;
7150;SDS011;3617;48.836;9.172;2024-02-21T06:53:41;1.90;;;1.40;;
7150;SDS011;3617;48.836;9.172;2024-02-21T06:56:08;3.37;;;1.77;;
7150;SDS011;3617;48.836;9.172;2024-02-21T06:58:34;2.97;;;1.83;;
7150;SDS011;3617;48.836;9.172;2024-02-21T07:01:01;1.97;;;1.83;;
7150;SDS011;3617;48.836;9.172;2024-02-21T07:03:28;4.57;;;1.60;;
7150;SDS011;3617;48.836;9.172;2024-02-21T07:05:54;2.13;;;1.60;;
7150;SDS011;3617;48.836;9.172;2024-02-21T07:08:20;5.23;;;1.70;;
7150;SDS011;3617;48.836;9.172;2024-02-21T07:10:46;3.97;;;1.53;;
7150;SDS011;3617;48.836;9.172;2024-02-21T07:13:12;2.53;;;1.70;;
7150;SDS011;3617;48.836;9.172;2024-02-21T07:15:40;3.10;;;2.00;;
7150;SDS011;3617;48.836;9.172;2024-02-21T07:18:06;3.53;;;1.50;;
7150;SDS011;3617;48.836;9.172;2024-02-21T07:20:32;4.53;;;2.53;;
7150;SDS011;3617;48.836;9.172;2024-02-21T07:22:58;4.77;;;1.93;;
7150;SDS011;3617;48.836;9.172;2024-02-21T07:25:24;2.70;;;1.70;;
7150;SDS011;3617;48.836;9.172;2024-02-21T07:27:52;2.77;;;2.00;;
7150;SDS011;3617;48.836;9.172;2024-02-21T07:30:18;2.50;;;1.80;;
7150;SDS011;3617;48.836;9.172;2024-02-21T07:32:44;4.13;;;2.03;;
7150;SDS011;3617;48.836;9.172;2024-02-21T07:35:10;2.43;;;1.93;;
7150;SDS011;3617;48.836;9.172;2024-02-21T07:37:37;2.27;;;1.80;;
7150;SDS011;3617;48.836;9.172;2024-02-21T07:40:06;3.03;;;2.03;;
7150;SDS011;3617;48.836;9.172;2024-02-21T07:42:32;3.03;;;1.60;;
7150;SDS011;3617;48.836;9.172;2024-02-21T07:44:58;2.43;;;1.77;;
7150;SDS011;3617;48.836;9.172;2024-02-21T07:47:24;3.70;;;1.87;;
7150;SDS011;3617;48.836;9.172;2024-02-21T07:49:50;3.70;;;2.00;;
7150;SDS011;3617;48.836;9.172;2024-02-21T07:52:16;1.10;;;1.00;;
7150;SDS011;3617;48.836;9.172;2024-02-21T07:54:42;2.33;;;1.47;;
7150;SDS011;3617;48.836;9.172;2024-02-21T07:57:08;1.27;;;1.17;;
7150;SDS011;3617;48.836;9.172;2024-02-21T07:59:34;1.33;;;1.10;;
7150;SDS011;3617;48.836;9.172;2024-02-21T08:02:00;2.73;;;1.37;;
7150;SDS011;3617;48.836;9.172;2024-02-21T08:04:27;1.57;;;1.20;;
7150;SDS011;3617;48.836;9.172;2024-02-21T08:06:53;1.97;;;1.17;;
7150;SDS011;3617;48.836;9.172;2024-02-21T08:09:21;1.17;;;1.00;;
7150;SDS011;3617;48.836;9.172;2024-02-21T08:11:47;3.77;;;1.73;;
7150;SDS011;3617;48.836;9.172;2024-02-21T08:14:13;1.53;;;1.07;;
7150;SDS011;3617;48.836;9.172;2024-02-21T08:16:41;1.57;;;1.10;;
7150;SDS011;3617;48.836;9.172;2024-02-21T08:19:07;1.90;;;1.20;;
7150;SDS011;3617;48.836;9.172;2024-02-21T08:21:33;2.37;;;1.20;;
7150;SDS011;3617;48.836;9.172;2024-02-21T08:23:58;4.93;;;1.30;;
7150;SDS011;3617;48.836;9.172;2024-02-21T08:26:24;1.47;;;1.17;;
7150;SDS011;3617;48.836;9.172;2024-02-21T08:28:53;2.73;;;1.13;;
7150;SDS011;3617;48.836;9.172;2024-02-21T08:31:19;2.33;;;0.87;;
7150;SDS011;3617;48.836;9.172;2024-02-21T08:33:45;1.87;;;1.43;;
7150;SDS011;3617;48.836;9.172;2024-02-21T08:36:18;1.13;;;0.97;;
7150;SDS011;3617;48.836;9.172;2024-02-21T08:38:45;2.00;;;1.37;;
7150;SDS011;3617;48.836;9.172;2024-02-21T08:41:11;1.90;;;1.20;;
7150;SDS011;3617;48.836;9.172;2024-02-21T08:43:37;1.40;;;1.30;;
7150;SDS011;3617;48.836;9.172;2024-02-21T08:46:03;5.10;;;1.57;;
7150;SDS011;3617;48.836;9.172;2024-02-21T08:48:29;1.30;;;1.10;;
7150;SDS011;3617;48.836;9.172;2024-02-21T08:50:55;3.93;;;1.00;;
7150;SDS011;3617;48.836;9.172;2024-02-21T08:53:21;2.03;;;0.80;;
7150;SDS011;3617;48.836;9.172;2024-02-21T08:55:47;3.70;;;1.23;;
7150;SDS011;3617;48.836;9.172;2024-02-21T08:58:13;2.97;;;1.33;;
7150;SDS011;3617;48.836;9.172;2024-02-21T09:00:39;1.20;;;1.10;;
7150;SDS011;3617;48.836;9.172;2024-02-21T09:03:05;2.13;;;1.07;;
7150;SDS011;3617;48.836;9.172;2024-02-21T09:05:31;3.03;;;1.20;;
7150;SDS011;3617;48.836;9.172;2024-02-21T09:07:59;1.73;;;1.30;;
7150;SDS011;3617;48.836;9.172;2024-02-21T09:10:25;3.23;;;1.60;;
7150;SDS011;3617;48.836;9.172;2024-02-21T09:12:51;1.67;;;1.10;;
7150;SDS011;3617;48.836;9.172;2024-02-21T09:15:17;6.63;;;1.40;;
7150;SDS011;3617;48.836;9.172;2024-02-21T09:17:43;5.73;;;1.57;;
7150;SDS011;3617;48.836;9.172;2024-02-21T09:20:09;2.47;;;1.20;;
7150;SDS011;3617;48.836;9.172;2024-02-21T09:22:36;4.33;;;1.20;;
7150;SDS011;3617;48.836;9.172;2024-02-21T09:25:04;2.50;;;1.07;;
7150;SDS011;3617;48.836;9.172;2024-02-21T09:27:30;1.73;;;1.10;;
7150;SDS011;3617;48.836;9.172;2024-02-21T09:29:56;1.50;;;1.20;;
7150;SDS011;3617;48.836;9.172;2024-02-21T09:32:22;4.27;;;1.20;;
7150;SDS011;3617;48.836;9.172;2024-02-21T09:34:48;0.90;;;0.83;;
7150;SDS011;3617;48.836;9.172;2024-02-21T09:37:14;1.37;;;1.00;;
7150;SDS011;3617;48.836;9.172;2024-02-21T09:39:40;1.07;;;0.93;;
7150;SDS011;3617;48.836;9.172;2024-02-21T09:42:06;2.93;;;1.10;;
7150;SDS011;3617;48.836;9.172;2024-02-21T09:44:33;1.43;;;0.93;;
7150;SDS011;3617;48.836;9.172;2024-02-21T09:47:02;2.57;;;1.20;;
7150;SDS011;3617;48.836;9.172;2024-02-21T09:49:33;1.08;;;0.98;;
7150;SDS011;3617;48.836;9.172;2024-02-21T09:52:03;1.52;;;1.13;;
7150;SDS011;3617;48.836;9.172;2024-02-21T09:54:34;2.22;;;0.80;;
7150;SDS011;3617;48.836;9.172;2024-02-21T09:57:01;2.58;;;1.13;;
7150;SDS011;3617;48.836;9.172;2024-02-21T09:59:27;1.95;;;1.27;;
7150;SDS011;3617;48.836;9.172;2024-02-21T10:01:54;1.10;;;1.00;;
7150;SDS011;3617;48.836;9.172;2024-02-21T10:04:20;3.67;;;1.08;;
7150;SDS011;3617;48.836;9.172;2024-02-21T10:06:46;1.60;;;1.07;;
7150;SDS011;3617;48.836;9.172;2024-02-21T10:09:22;3.40;;;1.17;;
7150;SDS011;3617;48.836;9.172;2024-02-21T10:11:48;2.07;;;1.30;;
7150;SDS011;3617;48.836;9.172;2024-02-21T10:14:15;3.83;;;1.05;;
7150;SDS011;3617;48.836;9.172;2024-02-21T10:16:42;3.07;;;1.27;;
7150;SDS011;3617;48.836;9.172;2024-02-21T10:19:18;1.23;;;0.90;;
7150;SDS011;3617;48.836;9.172;2024-02-21T10:21:57;1.35;;;1.13;;
7150;SDS011;3617;48.836;9.172;2024-02-21T10:24:30;3.03;;;1.27;;
7150;SDS011;3617;48.836;9.172;2024-02-21T10:27:01;1.83;;;1.27;;
7150;SDS011;3617;48.836;9.172;2024-02-21T10:29:28;2.35;;;1.30;;
7150;SDS011;3617;48.836;9.172;2024-02-21T10:32:03;1.17;;;1.07;;
7150;SDS011;3617;48.836;9.172;2024-02-21T10:34:29;2.83;;;1.20;;
7150;SDS011;3617;48.836;9.172;2024-02-21T10:37:08;1.83;;;1.00;;
7150;SDS011;3617;48.836;9.172;2024-02-21T10:39:36;1.47;;;1.10;;
7150;SDS011;3617;48.836;9.172;2024-02-21T10:42:03;1.00;;;0.90;;
7150;SDS011;3617;48.836;9.172;2024-02-21T10:44:30;1.53;;;1.00;;
7150;SDS011;3617;48.836;9.172;2024-02-21T10:46:56;0.70;;;0.70;;
7150;SDS011;3617;48.836;9.172;2024-02-21T10:49:23;1.97;;;0.83;;
7150;SDS011;3617;48.836;9.172;2024-02-21T10:51:54;1.10;;;0.90;;
7150;SDS011;3617;48.836;9.172;2024-02-21T10:57:02;2.27;;;0.97;;
7150;SDS011;3617;48.836;9.172;2024-02-21T10:59:29;1.43;;;1.00;;
7150;SDS011;3617;48.836;9.172;2024-02-21T11:01:57;2.83;;;1.17;;
7150;SDS011;3617;48.836;9.172;2024-02-21T11:04:23;2.63;;;1.00;;
7150;SDS011;3617;48.836;9.172;2024-02-21T11:06:49;2.13;;;0.97;;
7150;SDS011;3617;48.836;9.172;2024-02-21T11:09:16;1.10;;;0.97;;
7150;SDS011;3617;48.836;9.172;2024-02-21T11:11:43;1.50;;;0.97;;
7150;SDS011;3617;48.836;9.172;2024-02-21T11:16:36;1.80;;;1.07;;
7150;SDS011;3617;48.836;9.172;2024-02-21T11:19:04;1.40;;;0.93;;
7150;SDS011;3617;48.836;9.172;2024-02-21T11:21:34;2.07;;;1.13;;
7150;SDS011;3617;48.836;9.172;2024-02-21T11:24:00;1.47;;;1.20;;
7150;SDS011;3617;48.836;9.172;2024-02-21T11:26:27;1.80;;;1.10;;
7150;SDS011;3617;48.836;9.172;2024-02-21T11:28:57;1.90;;;0.93;;
7150;SDS011;3617;48.836;9.172;2024-02-21T11:31:24;1.60;;;1.17;;
7150;SDS011;3617;48.836;9.172;2024-02-21T11:33:52;3.83;;;1.17;;
7150;SDS011;3617;48.836;9.172;2024-02-21T11:36:25;2.50;;;1.13;;
7150;SDS011;3617;48.836;9.172;2024-02-21T11:38:51;2.13;;;1.00;;
7150;SDS011;3617;48.836;9.172;2024-02-21T11:41:20;1.00;;;0.90;;
7150;SDS011;3617;48.836;9.172;2024-02-21T11:43:48;0.80;;;0.80;;
7150;SDS011;3617;48.836;9.172;2024-02-21T11:46:14;1.20;;;0.80;;
7150;SDS011;3617;48.836;9.172;2024-02-21T11:48:40;1.07;;;0.90;;
7150;SDS011;3617;48.836;9.172;2024-02-21T11:51:09;1.30;;;1.00;;
7150;SDS011;3617;48.836;9.172;2024-02-21T11:53:36;1.17;;;0.80;;
7150;SDS011;3617;48.836;9.172;2024-02-21T11:56:02;1.73;;;1.10;;
7150;SDS011;3617;48.836;9.172;2024-02-21T11:58:28;9.17;;;1.13;;
7150;SDS011;3617;48.836;9.172;2024-02-21T12:00:55;1.13;;;0.80;;
7150;SDS011;3617;48.836;9.172;2024-02-21T12:03:21;1.30;;;1.00;;
7150;SDS011;3617;48.836;9.172;2024-02-21T12:05:47;2.70;;;1.03;;
7150;SDS011;3617;48.836;9.172;2024-02-21T12:08:13;1.20;;;1.10;;
7150;SDS011;3617;48.836;9.172;2024-02-21T12:10:41;1.30;;;0.93;;
7150;SDS011;3617;48.836;9.172;2024-02-21T12:13:09;1.10;;;0.97;;
7150;SDS011;3617;48.836;9.172;2024-02-21T12:15:35;1.77;;;1.13;;
7150;SDS011;3617;48.836;9.172;2024-02-21T12:18:01;1.03;;;0.93;;
7150;SDS011;3617;48.836;9.172;2024-02-21T12:20:27;1.60;;;1.00;;
7150;SDS011;3617;48.836;9.172;2024-02-21T12:22:53;2.57;;;1.03;;
7150;SDS011;3617;48.836;9.172;2024-02-21T12:25:20;1.63;;;0.87;;
7150;SDS011;3617;48.836;9.172;2024-02-21T12:27:51;1.00;;;0.90;;
7150;SDS011;3617;48.836;9.172;2024-02-21T12:30:18;2.10;;;1.10;;
7150;SDS011;3617;48.836;9.172;2024-02-21T12:32:44;1.43;;;1.33;;
7150;SDS011;3617;48.836;9.172;2024-02-21T12:35:10;2.37;;;1.10;;
7150;SDS011;3617;48.836;9.172;2024-02-21T12:37:36;4.30;;;1.20;;
7150;SDS011;3617;48.836;9.172;2024-02-21T12:40:06;2.40;;;0.90;;
7150;SDS011;3617;48.836;9.172;2024-02-21T12:42:35;2.43;;;0.90;;
7150;SDS011;3617;48.836;9.172;2024-02-21T12:45:02;2.97;;;1.30;;
7150;SDS011;3617;48.836;9.172;2024-02-21T12:47:28;1.83;;;0.90;;
7150;SDS011;3617;48.836;9.172;2024-02-21T12:49:54;1.57;;;0.87;;
7150;SDS011;3617;48.836;9.172;2024-02-21T12:52:20;2.50;;;0.90;;
7150;SDS011;3617;48.836;9.172;2024-02-21T12:54:46;2.03;;;0.70;;
7150;SDS011;3617;48.836;9.172;2024-02-21T12:57:12;1.33;;;0.90;;
7150;SDS011;3617;48.836;9.172;2024-02-21T12:59:38;1.38;;;0.90;;
7150;SDS011;3617;48.836;9.172;2024-02-21T13:02:04;1.83;;;0.70;;
7150;SDS011;3617;48.836;9.172;2024-02-21T13:04:31;1.40;;;0.90;;
7150;SDS011;3617;48.836;9.172;2024-02-21T13:06:57;1.00;;;1.00;;
7150;SDS011;3617;48.836;9.172;2024-02-21T13:09:23;1.30;;;1.00;;
7150;SDS011;3617;48.836;9.172;2024-02-21T13:11:49;2.80;;;0.90;;
7150;SDS011;3617;48.836;9.172;2024-02-21T13:14:16;1.20;;;1.10;;
7150;SDS011;3617;48.836;9.172;2024-02-21T13:16:42;1.33;;;1.10;;
7150;SDS011;3617;48.836;9.172;2024-02-21T13:19:08;2.57;;;1.20;;
7150;SDS011;3617;48.836;9.172;2024-02-21T13:21:35;1.20;;;0.87;;
7150;SDS011;3617;48.836;9.172;2024-02-21T13:24:01;1.27;;;0.83;;
7150;SDS011;3617;48.836;9.172;2024-02-21T13:26:27;1.33;;;0.97;;
7150;SDS011;3617;48.836;9.172;2024-02-21T13:28:54;2.43;;;0.90;;
7150;SDS011;3617;48.836;9.172;2024-02-21T13:31:20;1.83;;;0.80;;
7150;SDS011;3617;48.836;9.172;2024-02-21T13:33:47;1.13;;;0.80;;
7150;SDS011;3617;48.836;9.172;2024-02-21T13:36:13;1.20;;;1.03;;
7150;SDS011;3617;48.836;9.172;2024-02-21T13:38:39;1.27;;;0.80;;
7150;SDS011;3617;48.836;9.172;2024-02-21T13:41:05;0.77;;;0.77;;
7150;SDS011;3617;48.836;9.172;2024-02-21T13:43:32;0.87;;;0.80;;
7150;SDS011;3617;48.836;9.172;2024-02-21T13:45:58;0.80;;;0.67;;
7150;SDS011;3617;48.836;9.172;2024-02-21T13:48:24;0.77;;;0.77;;
7150;SDS011;3617;48.836;9.172;2024-02-21T13:50:51;1.30;;;0.80;;
7150;SDS011;3617;48.836;9.172;2024-02-21T13:53:17;0.70;;;0.70;;
7150;SDS011;3617;48.836;9.172;2024-02-21T13:55:47;1.30;;;1.00;;
7150;SDS011;3617;48.836;9.172;2024-02-21T13:58:13;0.67;;;0.53;;
7150;SDS011;3617;48.836;9.172;2024-02-21T14:00:39;1.03;;;0.90;;
7150;SDS011;3617;48.836;9.172;2024-02-21T14:03:05;0.70;;;0.70;;
7150;SDS011;3617;48.836;9.172;2024-02-21T14:05:31;1.33;;;0.83;;
7150;SDS011;3617;48.836;9.172;2024-02-21T14:07:57;2.83;;;0.67;;
7150;SDS011;3617;48.836;9.172;2024-02-21T14:10:23;0.70;;;0.70;;
7150;SDS011;3617;48.836;9.172;2024-02-21T14:12:49;3.70;;;1.00;;
7150;SDS011;3617;48.836;9.172;2024-02-21T14:15:15;0.70;;;0.70;;
7150;SDS011;3617;48.836;9.172;2024-02-21T14:17:41;1.00;;;0.97;;
7150;SDS011;3617;48.836;9.172;2024-02-21T14:20:07;2.03;;;0.70;;
7150;SDS011;3617;48.836;9.172;2024-02-21T14:22:33;2.07;;;0.87;;
7150;SDS011;3617;48.836;9.172;2024-02-21T14:25:02;2.07;;;0.97;;
7150;SDS011;3617;48.836;9.172;2024-02-21T14:27:30;0.80;;;0.80;;
7150;SDS011;3617;48.836;9.172;2024-02-21T14:29:56;1.57;;;0.80;;
7150;SDS011;3617;48.836;9.172;2024-02-21T14:32:22;0.90;;;0.73;;
7150;SDS011;3617;48.836;9.172;2024-02-21T14:34:48;0.77;;;0.77;;
7150;SDS011;3617;48.836;9.172;2024-02-21T14:37:14;1.37;;;0.80;;
7150;SDS011;3617;48.836;9.172;2024-02-21T14:39:40;1.10;;;0.80;;
7150;SDS011;3617;48.836;9.172;2024-02-21T14:42:06;0.90;;;0.80;;
7150;SDS011;3617;48.836;9.172;2024-02-21T14:44:36;2.10;;;0.90;;
7150;SDS011;3617;48.836;9.172;2024-02-21T14:47:02;1.33;;;0.77;;
7150;SDS011;3617;48.836;9.172;2024-02-21T14:49:28;0.87;;;0.77;;
7150;SDS011;3617;48.836;9.172;2024-02-21T14:51:54;1.10;;;1.00;;
7150;SDS011;3617;48.836;9.172;2024-02-21T14:54:20;0.80;;;0.73;;
7150;SDS011;3617;48.836;9.172;2024-02-21T14:56:46;0.80;;;0.77;;
7150;SDS011;3617;48.836;9.172;2024-02-21T14:59:12;0.53;;;0.53;;
7150;SDS011;3617;48.836;9.172;2024-02-21T15:01:38;0.97;;;0.90;;
7150;SDS011;3617;48.836;9.172;2024-02-21T15:04:04;1.77;;;0.97;;
7150;SDS011;3617;48.836;9.172;2024-02-21T15:06:31;0.53;;;0.53;;
7150;SDS011;3617;48.836;9.172;2024-02-21T15:08:57;1.50;;;0.97;;
7150;SDS011;3617;48.836;9.172;2024-02-21T15:11:25;0.70;;;0.70;;
7150;SDS011;3617;48.836;9.172;2024-02-21T15:13:51;0.60;;;0.60;;
7150;SDS011;3617;48.836;9.172;2024-02-21T15:16:17;1.60;;;0.73;;